Time;durP1;ratioP1;P1;durP2;ratioP2;P2;SDS_P1;SDS_P2;PMS_P1;PMS_P2;Temp;Humidity;BMP_temperature;BMP_pressure;BME280_temperature;BME280_humidity;BME280_pressure;Samples;Min_cycle;Max_cycle;Signal;HPM_P1;HPM_P2
2021/01/17 00:00:28;;;;;;;1.70;0.20;;;0.30;99.90;;;;;;5022163;28;20178;-57
2021/01/17 00:02:54;;;;;;;1.70;0.20;;;0.30;99.90;;;;;;5017957;28;20535;-57
2021/01/17 00:05:24;;;;;;;1.70;0.20;;;0.40;99.90;;;;;;5014835;28;20250;-57
2021/01/17 00:07:51;;;;;;;1.70;0.20;;;0.40;99.90;;;;;;5018346;28;20206;-58
2021/01/17 00:10:22;;;;;;;5.30;4.90;;;0.40;99.90;;;;;;5026829;28;20241;-57
2021/01/17 00:12:50;;;;;;;1.70;0.20;;;0.50;99.90;;;;;;5020702;28;20206;-57
2021/01/17 00:15:16;;;;;;;2.65;0.95;;;0.40;99.90;;;;;;5031454;28;20195;-57
2021/01/17 00:17:43;;;;;;;2.55;1.67;;;0.40;99.90;;;;;;5017022;28;20203;-57
2021/01/17 00:20:10;;;;;;;1.70;0.20;;;0.40;99.90;;;;;;5014227;28;20187;-57
2021/01/17 00:22:37;;;;;;;3.05;2.85;;;0.40;99.90;;;;;;5026097;28;20171;-57
2021/01/17 00:25:07;;;;;;;3.67;1.40;;;0.40;99.90;;;;;;5017817;28;20189;-59
2021/01/17 00:27:33;;;;;;;1.70;0.20;;;0.30;99.90;;;;;;5016138;28;20207;-57
2021/01/17 00:29:59;;;;;;;1.70;0.20;;;0.00;99.90;;;;;;5025593;28;20197;-57
2021/01/17 00:32:25;;;;;;;2.10;0.90;;;0.20;99.90;;;;;;5016739;28;20193;-57
2021/01/17 00:34:51;;;;;;;3.03;0.77;;;0.20;99.90;;;;;;5020671;28;20211;-57
2021/01/17 00:37:18;;;;;;;1.73;0.30;;;0.20;99.90;;;;;;5018436;28;20559;-58
2021/01/17 00:39:44;;;;;;;1.70;0.20;;;0.20;99.90;;;;;;5015068;28;20241;-57
2021/01/17 00:42:18;;;;;;;1.80;0.60;;;0.40;99.90;;;;;;5023805;28;20198;-57
2021/01/17 00:44:44;;;;;;;4.43;2.47;;;0.30;99.90;;;;;;5027690;28;20431;-57
2021/01/17 00:47:11;;;;;;;1.75;0.20;;;0.20;99.90;;;;;;5016459;28;20206;-57
2021/01/17 00:49:37;;;;;;;1.70;0.30;;;0.30;99.90;;;;;;5019334;28;20681;-57
2021/01/17 00:52:03;;;;;;;1.70;0.20;;;0.30;99.90;;;;;;5013483;28;20194;-57
2021/01/17 00:54:29;;;;;;;6.50;3.07;;;0.20;99.90;;;;;;5013689;28;20202;-57
2021/01/17 00:56:54;;;;;;;1.80;0.40;;;0.20;99.90;;;;;;5025831;28;20482;-57
2021/01/17 00:59:20;;;;;;;1.80;0.30;;;0.20;99.90;;;;;;5025000;28;20182;-56
2021/01/17 01:01:47;;;;;;;1.70;0.20;;;0.40;99.90;;;;;;5021708;28;20555;-57
2021/01/17 01:04:15;;;;;;;1.70;0.20;;;0.20;99.90;;;;;;5018627;28;20441;-57
2021/01/17 01:06:41;;;;;;;1.70;0.20;;;0.20;99.90;;;;;;5023003;28;20189;-58
2021/01/17 01:09:11;;;;;;;1.70;0.20;;;0.30;99.90;;;;;;5017757;28;20645;-57
2021/01/17 01:11:38;;;;;;;4.75;3.25;;;0.40;99.90;;;;;;5017326;28;20195;-58
2021/01/17 01:14:07;;;;;;;1.70;0.22;;;0.40;99.90;;;;;;5024708;28;20209;-58
2021/01/17 01:16:34;;;;;;;1.70;0.20;;;0.10;99.90;;;;;;5020030;28;20257;-58
2021/01/17 01:19:00;;;;;;;1.70;0.20;;;0.10;99.90;;;;;;5022648;28;20643;-55
2021/01/17 01:21:31;;;;;;;1.70;0.20;;;0.20;99.90;;;;;;5019248;28;20260;-58
2021/01/17 01:23:57;;;;;;;1.75;0.30;;;0.40;99.90;;;;;;5018058;28;20183;-58
2021/01/17 01:26:23;;;;;;;1.70;0.20;;;0.50;99.90;;;;;;5024034;28;20198;-61
2021/01/17 01:28:50;;;;;;;1.70;0.20;;;0.60;99.90;;;;;;5015207;28;20210;-57
2021/01/17 01:31:18;;;;;;;1.70;0.20;;;0.50;99.90;;;;;;5019806;28;20194;-58
2021/01/17 01:33:44;;;;;;;1.70;0.20;;;0.40;99.90;;;;;;5023048;28;20268;-58
2021/01/17 01:36:16;;;;;;;1.70;0.20;;;0.40;99.90;;;;;;5016936;28;20189;-58
2021/01/17 01:38:42;;;;;;;2.65;0.88;;;0.40;99.90;;;;;;5011939;28;20288;-57
2021/01/17 01:41:08;;;;;;;1.80;0.40;;;0.50;99.90;;;;;;5016391;28;20185;-57
2021/01/17 01:43:34;;;;;;;1.70;0.20;;;0.40;99.90;;;;;;4996934;28;20282;-57
2021/01/17 01:45:59;;;;;;;1.70;0.20;;;0.40;99.90;;;;;;5014956;28;20191;-57
2021/01/17 01:48:29;;;;;;;1.70;0.20;;;0.30;99.90;;;;;;5033165;28;20379;-60
2021/01/17 01:50:55;;;;;;;1.70;0.20;;;0.40;99.90;;;;;;5032006;28;20198;-56
2021/01/17 01:53:21;;;;;;;1.70;0.20;;;0.50;99.90;;;;;;5037825;28;20689;-57
2021/01/17 01:55:46;;;;;;;1.70;0.20;;;0.40;99.90;;;;;;5032549;28;20190;-57
2021/01/17 01:58:16;;;;;;;1.70;0.20;;;0.40;99.90;;;;;;5035338;28;20186;-58
2021/01/17 02:00:41;;;;;;;1.73;0.20;;;0.50;99.90;;;;;;5034675;28;20174;-57
2021/01/17 02:03:09;;;;;;;1.70;0.20;;;0.50;99.90;;;;;;5030979;28;20187;-57
2021/01/17 02:05:35;;;;;;;1.70;0.20;;;0.50;99.90;;;;;;5024311;28;20190;-57
2021/01/17 02:08:22;;;;;;;1.70;0.20;;;0.50;99.90;;;;;;5037068;28;20253;-57
2021/01/17 02:10:47;;;;;;;1.70;0.30;;;0.50;99.90;;;;;;5032835;28;20249;-57
2021/01/17 02:13:38;;;;;;;3.80;3.50;;;0.60;99.90;;;;;;5033657;28;20226;-57
2021/01/17 02:16:06;;;;;;;1.70;0.20;;;0.50;99.90;;;;;;5032454;28;20191;-57
2021/01/17 02:18:35;;;;;;;2.10;0.77;;;0.60;99.90;;;;;;5028439;28;20249;-57
2021/01/17 02:21:02;;;;;;;1.80;0.35;;;0.70;99.90;;;;;;5019577;28;20187;-58
2021/01/17 02:23:52;;;;;;;1.75;0.20;;;0.60;99.90;;;;;;5027434;28;20219;-57
2021/01/17 02:26:17;;;;;;;1.70;0.30;;;0.50;99.90;;;;;;5030533;28;20550;-57
2021/01/17 02:28:44;;;;;;;1.70;0.20;;;0.60;99.90;;;;;;5028636;28;20282;-57
2021/01/17 02:31:10;;;;;;;1.73;0.20;;;0.60;99.90;;;;;;5035834;28;20191;-57
2021/01/17 02:33:39;;;;;;;1.70;0.20;;;0.60;99.90;;;;;;5045224;28;20313;-57
2021/01/17 02:36:14;;;;;;;2.10;0.95;;;0.60;99.90;;;;;;5036025;28;20208;-57
2021/01/17 02:39:07;;;;;;;2.28;1.52;;;0.60;99.90;;;;;;5039689;28;20202;-57
2021/01/17 02:41:38;;;;;;;1.70;0.20;;;0.80;99.90;;;;;;5038553;28;20179;-57
2021/01/17 02:44:07;;;;;;;1.70;0.20;;;0.60;99.90;;;;;;5033718;28;20285;-57
2021/01/17 02:46:33;;;;;;;1.80;0.43;;;0.60;99.90;;;;;;5030418;28;20187;-56
2021/01/17 02:48:58;;;;;;;1.70;0.20;;;0.60;99.90;;;;;;5042755;28;20245;-57
2021/01/17 02:51:27;;;;;;;1.70;0.20;;;0.60;99.90;;;;;;5031376;28;20439;-57
2021/01/17 02:54:08;;;;;;;1.73;0.30;;;0.60;99.90;;;;;;5036208;28;20218;-57
2021/01/17 02:56:37;;;;;;;1.70;0.20;;;0.60;99.90;;;;;;5047829;28;20174;-60
2021/01/17 02:59:06;;;;;;;2.40;0.63;;;0.60;99.90;;;;;;5038395;28;20182;-58
2021/01/17 03:01:35;;;;;;;3.75;1.13;;;0.50;99.90;;;;;;5041514;28;20175;-57
2021/01/17 03:04:32;;;;;;;1.70;0.20;;;0.40;99.90;;;;;;5035081;28;20192;-57
2021/01/17 03:07:00;;;;;;;2.72;2.13;;;0.20;99.90;;;;;;5037648;28;20225;-60
2021/01/17 03:09:29;;;;;;;3.80;2.33;;;0.30;99.90;;;;;;5039922;28;20203;-57
2021/01/17 03:11:55;;;;;;;4.65;2.97;;;0.40;99.90;;;;;;5042300;28;20210;-57
2021/01/17 03:14:23;;;;;;;1.70;0.20;;;0.40;99.90;;;;;;5028174;28;20202;-57
2021/01/17 03:16:48;;;;;;;1.70;0.20;;;0.30;99.90;;;;;;5025901;28;20183;-57
2021/01/17 03:19:14;;;;;;;9.77;4.90;;;0.30;99.90;;;;;;5019865;28;20187;-57
2021/01/17 03:21:39;;;;;;;2.10;0.73;;;0.30;99.90;;;;;;5017854;28;20668;-57
2021/01/17 03:24:05;;;;;;;1.70;0.30;;;0.50;99.90;;;;;;5025010;28;20191;-57
2021/01/17 03:26:31;;;;;;;7.13;4.30;;;0.40;99.90;;;;;;5025680;28;20229;-57
2021/01/17 03:28:56;;;;;;;1.90;0.70;;;0.40;99.90;;;;;;5018826;28;20940;-57
2021/01/17 03:31:22;;;;;;;2.93;1.70;;;0.20;99.90;;;;;;5023921;28;20260;-57
2021/01/17 03:33:47;;;;;;;4.50;1.03;;;0.20;99.90;;;;;;5023659;28;20207;-57
2021/01/17 03:36:12;;;;;;;2.67;1.23;;;0.20;99.90;;;;;;5020463;28;20189;-57
2021/01/17 03:38:38;;;;;;;68.90;30.40;;;0.30;99.90;;;;;;5024566;28;20237;-57
2021/01/17 03:41:03;;;;;;;1.70;0.20;;;0.30;99.90;;;;;;5024016;28;20185;-58
2021/01/17 03:43:29;;;;;;;1.70;0.30;;;0.30;99.90;;;;;;5020323;28;20690;-57
2021/01/17 03:45:54;;;;;;;4.23;2.90;;;0.10;99.90;;;;;;5021651;28;20211;-57
2021/01/17 03:48:20;;;;;;;2.80;1.50;;;0.20;99.90;;;;;;5016766;28;20210;-57
2021/01/17 03:50:45;;;;;;;1.77;0.20;;;0.30;99.90;;;;;;5020014;28;20194;-57
2021/01/17 03:53:11;;;;;;;1.70;0.20;;;0.40;99.90;;;;;;5016353;28;20210;-57
2021/01/17 03:55:36;;;;;;;4.70;4.27;;;0.40;99.90;;;;;;5020903;28;20195;-57
2021/01/17 03:58:02;;;;;;;4.37;1.23;;;0.40;99.90;;;;;;5023954;28;20215;-57
2021/01/17 04:00:27;;;;;;;2.93;1.33;;;0.30;99.90;;;;;;5023362;28;20704;-57
2021/01/17 04:02:53;;;;;;;1.80;0.60;;;0.30;99.90;;;;;;5015075;28;20665;-57
2021/01/17 04:05:18;;;;;;;1.70;0.20;;;0.50;99.90;;;;;;5019117;28;20202;-58
2021/01/17 04:07:44;;;;;;;1.70;0.20;;;0.30;99.90;;;;;;5016905;28;20261;-57
2021/01/17 04:10:09;;;;;;;17.90;12.50;;;0.40;99.90;;;;;;5017102;28;20199;-57
2021/01/17 04:12:35;;;;;;;1.70;0.20;;;0.30;99.90;;;;;;5015852;28;20278;-57
2021/01/17 04:15:00;;;;;;;3.90;1.27;;;0.40;99.90;;;;;;5023965;28;20464;-57
2021/01/17 04:17:26;;;;;;;13.67;7.77;;;0.30;99.90;;;;;;5019103;28;20296;-58
2021/01/17 04:19:51;;;;;;;4.43;3.07;;;-0.20;99.90;;;;;;5013965;28;20599;-57
2021/01/17 04:22:17;;;;;;;1.73;0.27;;;0.20;99.90;;;;;;5014075;28;20195;-57
2021/01/17 04:24:42;;;;;;;4.53;2.50;;;0.30;99.90;;;;;;5014026;28;20191;-57
2021/01/17 04:27:08;;;;;;;1.70;0.20;;;0.10;99.90;;;;;;5023456;28;20191;-57
2021/01/17 04:29:33;;;;;;;8.50;5.70;;;0.30;99.90;;;;;;5020335;28;20182;-57
2021/01/17 04:32:00;;;;;;;8.23;5.67;;;0.20;99.90;;;;;;5023192;28;20606;-57
2021/01/17 04:34:25;;;;;;;2.28;1.40;;;0.10;99.90;;;;;;5021512;28;20213;-57
2021/01/17 04:36:51;;;;;;;4.17;1.77;;;0.20;99.90;;;;;;5014957;28;20183;-58
2021/01/17 04:39:17;;;;;;;1.70;0.20;;;0.20;99.90;;;;;;5020391;28;20185;-57
2021/01/17 04:41:45;;;;;;;1.70;0.20;;;0.20;99.90;;;;;;5023653;28;20185;-58
2021/01/17 04:44:12;;;;;;;1.73;0.30;;;0.30;99.90;;;;;;5018985;28;20208;-57
2021/01/17 04:46:39;;;;;;;2.97;2.20;;;0.50;99.90;;;;;;5022545;28;20214;-57
2021/01/17 04:49:09;;;;;;;4.65;3.03;;;0.40;99.90;;;;;;5019555;28;20235;-57
2021/01/17 04:51:35;;;;;;;2.47;1.95;;;0.50;99.90;;;;;;5016434;28;20551;-57
2021/01/17 04:54:04;;;;;;;1.70;0.20;;;0.20;99.90;;;;;;5013902;28;20357;-57
2021/01/17 04:56:31;;;;;;;10.38;3.10;;;0.10;99.90;;;;;;5015102;28;20840;-57
2021/01/17 04:59:10;;;;;;;9.82;7.80;;;0.30;99.90;;;;;;5016454;28;20277;-57
2021/01/17 05:01:44;;;;;;;6.32;2.22;;;0.10;99.90;;;;;;5022969;28;20191;-57
2021/01/17 05:04:48;;;;;;;2.90;1.05;;;0.20;99.90;;;;;;5020277;28;20177;-57
2021/01/17 05:07:21;;;;;;;1.80;0.55;;;0.40;99.90;;;;;;4958837;28;20776;-57
2021/01/17 05:10:10;;;;;;;11.57;7.55;;;0.00;99.90;;;;;;5019008;28;20179;-58
2021/01/17 05:12:38;;;;;;;1.80;0.50;;;0.50;99.90;;;;;;5013296;28;20190;-57
2021/01/17 05:15:05;;;;;;;7.78;4.72;;;0.20;99.90;;;;;;5015079;28;20672;-60
2021/01/17 05:17:40;;;;;;;1.70;0.20;;;0.20;99.90;;;;;;5014018;28;20218;-57
2021/01/17 05:20:08;;;;;;;2.50;1.05;;;0.20;99.90;;;;;;5019420;28;20186;-57
2021/01/17 05:22:34;;;;;;;1.75;0.20;;;0.30;99.90;;;;;;5014332;28;20171;-57
2021/01/17 05:25:03;;;;;;;3.90;1.55;;;0.30;99.90;;;;;;5017784;28;20312;-62
2021/01/17 05:27:29;;;;;;;1.70;0.20;;;0.30;99.90;;;;;;5016106;28;20636;-58
2021/01/17 05:29:54;;;;;;;11.53;8.27;;;0.30;99.90;;;;;;5015597;28;20274;-57
2021/01/17 05:32:21;;;;;;;11.40;6.90;;;0.30;99.90;;;;;;5015272;28;20195;-57
2021/01/17 05:34:47;;;;;;;7.32;3.75;;;0.30;99.90;;;;;;5023375;28;20206;-57
2021/01/17 05:37:14;;;;;;;10.40;6.63;;;0.30;99.90;;;;;;5013111;28;20217;-57
2021/01/17 05:39:57;;;;;;;12.30;3.28;;;0.20;99.90;;;;;;5012712;28;20195;-60
2021/01/17 05:42:30;;;;;;;10.35;8.30;;;0.20;99.90;;;;;;5012950;28;20213;-58
2021/01/17 05:45:09;;;;;;;1.73;0.20;;;0.20;99.90;;;;;;5023473;28;20201;-57
2021/01/17 05:47:34;;;;;;;3.20;0.82;;;0.30;99.90;;;;;;5028185;28;20210;-57
2021/01/17 05:50:06;;;;;;;11.53;7.73;;;0.10;99.90;;;;;;5026131;28;20213;-57
2021/01/17 05:52:32;;;;;;;10.60;5.13;;;0.20;99.90;;;;;;5030238;28;20187;-57
2021/01/17 05:54:59;;;;;;;4.10;1.88;;;0.00;99.90;;;;;;5036814;28;20220;-60
2021/01/17 05:57:25;;;;;;;8.45;3.75;;;0.10;99.90;;;;;;5044607;28;20201;-59
2021/01/17 05:59:52;;;;;;;4.13;2.30;;;0.20;99.90;;;;;;5030709;28;20191;-57
2021/01/17 06:02:19;;;;;;;7.43;5.55;;;0.30;99.90;;;;;;5031499;28;20191;-58
2021/01/17 06:04:53;;;;;;;1.70;0.20;;;0.40;99.90;;;;;;5026094;28;20209;-57
2021/01/17 06:07:21;;;;;;;1.80;0.40;;;0.20;99.90;;;;;;5014696;28;20555;-57
2021/01/17 06:09:54;;;;;;;10.55;7.55;;;0.30;99.90;;;;;;5015417;28;20194;-57
2021/01/17 06:12:32;;;;;;;15.98;10.15;;;0.20;99.90;;;;;;5020493;28;20269;-57
2021/01/17 06:15:08;;;;;;;4.93;3.65;;;0.30;99.90;;;;;;5016448;28;20217;-57
2021/01/17 06:17:35;;;;;;;1.70;0.20;;;0.20;99.90;;;;;;5017077;28;20301;-56
2021/01/17 06:20:03;;;;;;;1.75;0.20;;;0.40;99.90;;;;;;5015436;28;20565;-57
2021/01/17 06:22:30;;;;;;;6.40;3.15;;;0.30;99.90;;;;;;5016413;28;20193;-57
2021/01/17 06:25:03;;;;;;;1.70;0.20;;;0.20;99.90;;;;;;5020797;28;20639;-57
2021/01/17 06:27:29;;;;;;;1.80;0.20;;;0.30;99.90;;;;;;5013940;28;20276;-57
2021/01/17 06:29:56;;;;;;;6.80;2.53;;;0.30;99.90;;;;;;5016758;28;20662;-57
2021/01/17 06:32:28;;;;;;;1.73;0.20;;;0.30;99.90;;;;;;5021677;28;20429;-57
2021/01/17 06:34:56;;;;;;;6.22;1.27;;;0.30;99.90;;;;;;5019506;28;20209;-57
2021/01/17 06:37:24;;;;;;;1.70;0.20;;;0.40;99.90;;;;;;5019895;28;20229;-57
2021/01/17 06:39:55;;;;;;;2.10;0.98;;;0.40;99.90;;;;;;5024680;28;20210;-57
2021/01/17 06:42:21;;;;;;;1.73;0.20;;;0.30;99.90;;;;;;5018843;28;20194;-57
2021/01/17 06:44:49;;;;;;;1.85;0.50;;;0.30;99.90;;;;;;5017758;28;20202;-57
2021/01/17 06:47:19;;;;;;;1.70;0.20;;;0.40;99.90;;;;;;5020028;28;20727;-57
2021/01/17 06:49:46;;;;;;;1.92;0.73;;;0.50;99.90;;;;;;5020199;28;20312;-56
2021/01/17 06:52:14;;;;;;;2.45;1.05;;;0.60;99.90;;;;;;5016649;28;20194;-57
2021/01/17 06:54:51;;;;;;;4.53;3.63;;;0.60;99.90;;;;;;5016791;28;20565;-57
2021/01/17 06:57:18;;;;;;;2.67;1.65;;;0.60;99.90;;;;;;5016146;28;20209;-57
2021/01/17 06:59:48;;;;;;;1.70;0.20;;;0.50;99.90;;;;;;5017040;28;20186;-57
2021/01/17 07:02:14;;;;;;;1.70;0.20;;;0.40;99.90;;;;;;5022951;28;20187;-57
2021/01/17 07:04:53;;;;;;;2.00;0.50;;;0.50;99.90;;;;;;5016724;28;20194;-57
2021/01/17 07:07:42;;;;;;;1.70;0.20;;;0.50;99.90;;;;;;5017238;28;20203;-57
2021/01/17 07:10:11;;;;;;;5.10;2.35;;;0.40;99.90;;;;;;5016613;28;20183;-56
2021/01/17 07:13:01;;;;;;;1.80;0.35;;;0.40;99.90;;;;;;5030681;28;20243;-56
2021/01/17 07:15:30;;;;;;;2.45;0.77;;;0.10;99.90;;;;;;5018872;28;20272;-57
2021/01/17 07:18:10;;;;;;;1.80;0.30;;;0.40;99.90;;;;;;5021756;28;20728;-56
2021/01/17 07:20:41;;;;;;;1.80;0.30;;;0.40;99.90;;;;;;5017978;28;20190;-57
2021/01/17 07:23:09;;;;;;;3.08;1.38;;;0.40;99.90;;;;;;5016518;28;20182;-57
2021/01/17 07:25:36;;;;;;;15.55;9.18;;;0.40;99.90;;;;;;5015887;28;20186;-57
2021/01/17 07:28:07;;;;;;;1.80;0.45;;;0.40;99.90;;;;;;5028600;28;20206;-57
2021/01/17 07:30:47;;;;;;;3.55;3.25;;;0.30;99.90;;;;;;5019869;28;20186;-57
2021/01/17 07:33:14;;;;;;;2.03;0.73;;;0.40;99.90;;;;;;5011688;28;20245;-56
2021/01/17 07:35:47;;;;;;;5.35;3.17;;;0.40;99.90;;;;;;5019344;28;20792;-57
2021/01/17 07:38:22;;;;;;;1.73;0.20;;;0.40;99.90;;;;;;5013667;28;20211;-57
2021/01/17 07:40:54;;;;;;;1.75;0.20;;;0.00;99.90;;;;;;5016511;28;20228;-57
2021/01/17 07:43:33;;;;;;;2.00;0.52;;;0.40;99.90;;;;;;5015429;28;20185;-57
2021/01/17 07:46:10;;;;;;;1.70;0.30;;;0.30;99.90;;;;;;5021494;28;20193;-57
2021/01/17 07:48:36;;;;;;;1.77;0.30;;;0.40;99.90;;;;;;5017314;28;20213;-57
2021/01/17 07:51:04;;;;;;;7.10;5.47;;;0.50;99.90;;;;;;5019625;28;20623;-56
2021/01/17 07:53:44;;;;;;;7.93;5.07;;;0.50;99.90;;;;;;5015365;28;20210;-56
2021/01/17 07:56:29;;;;;;;3.80;1.88;;;0.60;99.90;;;;;;5015726;28;20761;-57
2021/01/17 07:59:06;;;;;;;2.10;0.77;;;0.40;99.90;;;;;;5003162;28;20231;-57
2021/01/17 08:01:31;;;;;;;1.70;0.20;;;0.40;99.90;;;;;;5022086;28;20177;-57
2021/01/17 08:04:17;;;;;;;1.70;0.20;;;0.40;99.90;;;;;;5018021;28;20190;-57
2021/01/17 08:06:45;;;;;;;9.10;3.50;;;0.50;99.90;;;;;;5007340;28;20195;-57
2021/01/17 08:09:15;;;;;;;1.70;0.20;;;0.50;99.90;;;;;;5021085;28;20210;-57
2021/01/17 08:11:51;;;;;;;2.00;0.88;;;0.60;99.90;;;;;;5019565;28;20206;-57
2021/01/17 08:14:22;;;;;;;6.50;3.63;;;0.60;99.90;;;;;;5017981;28;20194;-57
2021/01/17 08:17:19;;;;;;;3.38;2.17;;;0.50;99.90;;;;;;5018555;28;20674;-56
2021/01/17 08:20:00;;;;;;;1.75;0.20;;;0.50;99.90;;;;;;5015703;28;20189;-57
2021/01/17 08:22:25;;;;;;;3.40;1.48;;;0.60;99.90;;;;;;5015635;28;20232;-57
2021/01/17 08:25:06;;;;;;;10.57;4.57;;;0.60;99.90;;;;;;5015383;28;20548;-57
2021/01/17 08:27:35;;;;;;;1.80;0.20;;;0.60;99.90;;;;;;5014913;28;20620;-57
2021/01/17 08:30:06;;;;;;;1.73;0.20;;;0.60;99.90;;;;;;5015029;28;20240;-56
2021/01/17 08:32:34;;;;;;;4.18;2.15;;;0.70;99.90;;;;;;5018856;28;20233;-57
2021/01/17 08:35:15;;;;;;;1.80;0.40;;;0.80;99.90;;;;;;5023131;28;20203;-56
2021/01/17 08:37:56;;;;;;;6.75;2.15;;;0.80;99.90;;;;;;5013920;28;20210;-56
2021/01/17 08:40:27;;;;;;;1.77;0.20;;;0.90;99.90;;;;;;5013942;28;20195;-56
2021/01/17 08:43:02;;;;;;;2.00;0.75;;;0.90;99.90;;;;;;5013973;28;20175;-56
2021/01/17 08:45:27;;;;;;;1.80;0.32;;;0.90;99.90;;;;;;4996741;28;20246;-56
2021/01/17 08:48:01;;;;;;;8.53;1.67;;;0.90;99.90;;;;;;5013821;28;20281;-57
2021/01/17 08:50:31;;;;;;;1.90;0.68;;;0.90;99.90;;;;;;5011498;28;20248;-59
2021/01/17 08:53:16;;;;;;;8.77;5.05;;;0.80;99.90;;;;;;5012012;28;20209;-58
2021/01/17 08:55:47;;;;;;;1.70;0.20;;;0.70;99.90;;;;;;5013896;28;20183;-57
2021/01/17 08:58:36;;;;;;;22.00;7.50;;;0.80;99.90;;;;;;5013778;28;20282;-57
2021/01/17 09:01:07;;;;;;;1.73;0.28;;;0.80;99.90;;;;;;5013233;28;20183;-58
2021/01/17 09:03:34;;;;;;;17.25;9.32;;;0.70;99.90;;;;;;5013747;28;20189;-57
2021/01/17 09:06:02;;;;;;;1.73;0.20;;;0.60;99.90;;;;;;5014483;28;20178;-57
2021/01/17 09:08:28;;;;;;;7.93;2.78;;;0.70;99.90;;;;;;5012735;28;20605;-58
2021/01/17 09:10:54;;;;;;;2.15;1.05;;;0.70;99.90;;;;;;5014823;28;20187;-57
2021/01/17 09:13:30;;;;;;;7.27;5.07;;;0.80;99.90;;;;;;5014645;28;20451;-57
2021/01/17 09:16:05;;;;;;;4.65;1.63;;;0.70;99.90;;;;;;5009432;28;20261;-58
2021/01/17 09:18:37;;;;;;;10.07;5.22;;;0.80;99.90;;;;;;5014681;28;20763;-57
2021/01/17 09:21:04;;;;;;;4.10;2.67;;;0.80;99.90;;;;;;5013308;28;20183;-57
2021/01/17 09:23:34;;;;;;;1.70;0.20;;;0.80;99.90;;;;;;5013595;28;20187;-57
2021/01/17 09:26:01;;;;;;;1.75;0.20;;;0.90;99.90;;;;;;5015425;28;20198;-57
2021/01/17 09:28:30;;;;;;;1.90;0.50;;;1.00;99.90;;;;;;5013738;28;20266;-57
2021/01/17 09:30:59;;;;;;;16.40;6.65;;;1.00;99.90;;;;;;5013762;28;20182;-58
2021/01/17 09:33:27;;;;;;;2.30;0.95;;;1.00;99.90;;;;;;5016984;28;20256;-57
2021/01/17 09:35:52;;;;;;;4.07;1.65;;;0.90;99.90;;;;;;5014437;28;20183;-57
2021/01/17 09:38:20;;;;;;;1.80;0.30;;;0.80;99.90;;;;;;5013734;28;20199;-57
2021/01/17 09:40:49;;;;;;;1.73;0.20;;;0.80;99.90;;;;;;5012521;28;20191;-57
2021/01/17 09:43:18;;;;;;;5.43;1.60;;;0.80;99.90;;;;;;5014045;28;20179;-58
2021/01/17 09:45:52;;;;;;;12.18;9.18;;;0.60;99.90;;;;;;5014385;28;20550;-57
2021/01/17 09:48:19;;;;;;;4.30;2.78;;;0.60;99.90;;;;;;5009272;28;20206;-58
2021/01/17 09:50:45;;;;;;;3.10;1.00;;;0.70;99.90;;;;;;5026502;28;20177;-58
2021/01/17 09:53:11;;;;;;;2.00;1.10;;;0.70;99.90;;;;;;5031971;28;20186;-60
2021/01/17 09:55:42;;;;;;;1.90;0.70;;;0.50;99.90;;;;;;5032859;28;20183;-58
2021/01/17 09:58:09;;;;;;;1.80;0.20;;;0.90;99.90;;;;;;5025390;28;20558;-58
2021/01/17 10:00:36;;;;;;;1.90;0.55;;;0.90;99.90;;;;;;5026081;28;20178;-58
2021/01/17 10:03:12;;;;;;;1.80;0.20;;;0.90;99.90;;;;;;5021135;28;20282;-58
2021/01/17 10:05:40;;;;;;;5.40;2.65;;;1.00;99.90;;;;;;5024602;28;20178;-57
2021/01/17 10:08:07;;;;;;;1.80;0.43;;;0.90;99.90;;;;;;5014383;28;20242;-57
2021/01/17 10:10:36;;;;;;;1.70;0.20;;;0.90;99.90;;;;;;5014350;28;20183;-58
2021/01/17 10:13:02;;;;;;;10.20;5.72;;;0.90;99.90;;;;;;5013184;28;20185;-57
2021/01/17 10:15:28;;;;;;;3.10;1.38;;;1.10;99.90;;;;;;5013176;28;20198;-57
2021/01/17 10:17:54;;;;;;;1.80;0.40;;;1.00;99.90;;;;;;5009196;28;20225;-58
2021/01/17 10:20:28;;;;;;;8.87;6.17;;;1.00;99.90;;;;;;4985530;28;20646;-57
2021/01/17 10:23:04;;;;;;;8.63;4.30;;;0.60;99.90;;;;;;5012034;28;20430;-58
2021/01/17 10:25:31;;;;;;;8.05;4.57;;;0.90;99.90;;;;;;5013250;28;20201;-58
2021/01/17 10:28:02;;;;;;;1.70;0.20;;;1.00;99.90;;;;;;5015562;28;20206;-58
2021/01/17 10:30:29;;;;;;;8.82;5.07;;;1.10;99.90;;;;;;5016022;28;20193;-59
2021/01/17 10:33:05;;;;;;;2.25;1.20;;;1.10;99.90;;;;;;5020552;28;20194;-58
2021/01/17 10:35:38;;;;;;;19.95;7.65;;;1.10;99.90;;;;;;5015056;28;20205;-60
2021/01/17 10:38:05;;;;;;;5.70;1.35;;;1.10;99.90;;;;;;5011369;28;20206;-57
2021/01/17 10:40:32;;;;;;;3.00;1.25;;;1.10;99.90;;;;;;5017663;28;20174;-58
2021/01/17 10:43:01;;;;;;;13.48;6.55;;;1.20;99.90;;;;;;5021978;28;20524;-58
2021/01/17 10:45:28;;;;;;;15.25;8.30;;;1.20;99.90;;;;;;5014085;28;20186;-58
2021/01/17 10:48:16;;;;;;;7.13;3.47;;;1.10;99.90;;;;;;5016630;28;20242;-57
2021/01/17 10:51:02;;;;;;;4.75;0.93;;;1.10;99.90;;;;;;5010074;28;20274;-57
2021/01/17 10:53:39;;;;;;;5.72;2.78;;;1.20;99.90;;;;;;5013714;28;20258;-58
2021/01/17 10:56:09;;;;;;;2.20;1.00;;;1.30;99.90;;;;;;5017265;28;20216;-57
2021/01/17 10:58:42;;;;;;;1.90;0.47;;;1.40;99.90;;;;;;5021632;28;20202;-58
2021/01/17 11:01:08;;;;;;;2.65;1.48;;;1.50;99.90;;;;;;5017888;28;20277;-58
2021/01/17 11:03:39;;;;;;;3.20;1.53;;;1.50;99.90;;;;;;5017159;28;20265;-58
2021/01/17 11:06:08;;;;;;;1.77;0.35;;;1.40;99.90;;;;;;5020804;28;20275;-59
2021/01/17 11:08:54;;;;;;;2.10;0.90;;;1.40;99.90;;;;;;5026885;28;20203;-58
2021/01/17 11:11:22;;;;;;;12.68;5.88;;;1.40;99.90;;;;;;5018194;28;20253;-59
2021/01/17 11:14:00;;;;;;;7.20;3.50;;;1.30;99.90;;;;;;5020129;28;20292;-58
2021/01/17 11:16:42;;;;;;;5.30;4.70;;;1.20;99.90;;;;;;5029100;28;20257;-58
2021/01/17 11:19:12;;;;;;;9.02;1.85;;;1.20;99.90;;;;;;5017400;28;20194;-58
2021/01/17 11:21:40;;;;;;;5.10;2.05;;;1.20;99.90;;;;;;5024525;28;20265;-58
2021/01/17 11:24:06;;;;;;;1.70;0.20;;;1.30;99.90;;;;;;5019507;28;20826;-58
2021/01/17 11:26:32;;;;;;;9.93;6.88;;;1.40;99.90;;;;;;5021040;28;20221;-58
2021/01/17 11:29:08;;;;;;;1.73;0.28;;;1.30;99.90;;;;;;5019930;28;20198;-57
2021/01/17 11:31:34;;;;;;;9.18;5.50;;;1.30;99.90;;;;;;5025471;28;20182;-58
2021/01/17 11:34:12;;;;;;;17.30;4.72;;;1.40;99.90;;;;;;5018078;28;20217;-58
2021/01/17 11:36:38;;;;;;;2.00;0.70;;;1.50;99.90;;;;;;5021529;28;20187;-58
2021/01/17 11:39:04;;;;;;;5.23;2.40;;;1.50;99.90;;;;;;5014828;28;20179;-58
2021/01/17 11:41:38;;;;;;;5.07;4.05;;;1.60;99.90;;;;;;5013292;28;20225;-59
2021/01/17 11:44:12;;;;;;;2.75;1.70;;;1.60;99.90;;;;;;5018618;28;20174;-58
2021/01/17 11:46:38;;;;;;;6.18;4.90;;;1.60;99.90;;;;;;5015488;28;20197;-58
2021/01/17 11:49:05;;;;;;;1.80;0.30;;;1.60;99.90;;;;;;5017266;28;20247;-58
2021/01/17 11:51:31;;;;;;;13.73;7.63;;;1.60;99.90;;;;;;5026339;28;20331;-58
2021/01/17 11:54:19;;;;;;;1.90;0.40;;;1.50;99.90;;;;;;5013726;28;20709;-58
2021/01/17 11:56:48;;;;;;;7.40;3.25;;;1.50;99.90;;;;;;5001993;28;20209;-57
2021/01/17 11:59:30;;;;;;;8.18;2.83;;;1.60;99.90;;;;;;5018230;28;20285;-58
2021/01/17 12:01:56;;;;;;;9.18;4.63;;;1.50;99.90;;;;;;5016781;28;20182;-58
2021/01/17 12:04:27;;;;;;;1.70;0.20;;;1.60;99.90;;;;;;5020550;28;20209;-58
2021/01/17 12:07:06;;;;;;;11.63;7.85;;;1.60;99.90;;;;;;5020416;28;20198;-58
2021/01/17 12:09:32;;;;;;;10.75;6.32;;;1.60;99.90;;;;;;5022751;28;20182;-58
2021/01/17 12:12:18;;;;;;;5.60;3.40;;;1.50;99.90;;;;;;5015283;28;20191;-57
2021/01/17 12:14:45;;;;;;;16.15;10.32;;;1.50;99.90;;;;;;5012943;28;20220;-58
2021/01/17 12:17:11;;;;;;;19.63;11.45;;;1.50;99.90;;;;;;5020664;28;20673;-58
2021/01/17 12:19:37;;;;;;;12.95;4.05;;;1.50;99.90;;;;;;5015136;28;20197;-58
2021/01/17 12:22:07;;;;;;;10.18;5.10;;;1.50;99.90;;;;;;5018647;28;20214;-58
2021/01/17 12:24:35;;;;;;;11.15;6.60;;;1.50;99.90;;;;;;5021020;28;20186;-59
2021/01/17 12:27:01;;;;;;;18.92;17.38;;;1.60;99.90;;;;;;5013775;28;20677;-59
2021/01/17 12:29:27;;;;;;;2.45;1.05;;;1.60;99.90;;;;;;4998373;28;20197;-59
2021/01/17 12:31:53;;;;;;;4.83;2.10;;;1.60;99.90;;;;;;5017998;28;20186;-59
2021/01/17 12:34:19;;;;;;;17.00;9.77;;;1.60;99.90;;;;;;5013622;28;20206;-59
2021/01/17 12:36:46;;;;;;;4.65;2.20;;;1.50;99.90;;;;;;5013408;28;20273;-59
2021/01/17 12:39:15;;;;;;;12.30;6.93;;;1.50;99.90;;;;;;5013465;28;20638;-58
2021/01/17 12:41:45;;;;;;;2.38;0.57;;;1.60;99.90;;;;;;5012020;28;20206;-59
2021/01/17 12:44:12;;;;;;;1.70;0.20;;;1.50;99.90;;;;;;5011750;28;20195;-58
2021/01/17 12:46:38;;;;;;;7.75;4.78;;;1.70;99.90;;;;;;5013672;28;20733;-58
2021/01/17 12:49:04;;;;;;;2.00;0.90;;;1.60;99.90;;;;;;5013580;28;20265;-58
2021/01/17 12:51:30;;;;;;;9.07;6.00;;;1.60;99.90;;;;;;5015865;28;20341;-58
2021/01/17 12:53:56;;;;;;;3.58;2.38;;;1.60;99.90;;;;;;5017794;28;20416;-58
2021/01/17 12:56:22;;;;;;;1.70;0.20;;;1.70;99.90;;;;;;5016625;28;20683;-58
2021/01/17 12:58:47;;;;;;;1.90;0.50;;;1.80;99.90;;;;;;5014213;28;20207;-59
2021/01/17 13:01:14;;;;;;;12.23;6.50;;;1.80;99.90;;;;;;5014477;28;20248;-58
2021/01/17 13:03:40;;;;;;;4.95;3.05;;;1.80;99.90;;;;;;5015670;28;20273;-59
2021/01/17 13:06:06;;;;;;;3.25;1.88;;;1.70;99.90;;;;;;5015855;28;20193;-58
2021/01/17 13:08:34;;;;;;;1.80;0.40;;;1.60;99.90;;;;;;5017298;28;20865;-59